Time;durP1;ratioP1;P1;durP2;ratioP2;P2;SDS_P1;SDS_P2;PMS_P1;PMS_P2;Temp;Humidity;BMP_temperature;BMP_pressure;BME280_temperature;BME280_humidity;BME280_pressure;Samples;Min_cycle;Max_cycle;Signal;HPM_P1;HPM_P2
2021/07/15 00:01:56;;;;;;;1.85;0.95;;;14.20;99.90;;;;;;4942304;29;20226;-68
2021/07/15 00:04:22;;;;;;;0.90;0.90;;;14.10;99.90;;;;;;4932393;29;20197;-68
2021/07/15 00:06:47;;;;;;;2.13;0.88;;;14.00;99.90;;;;;;4937575;29;20237;-65
2021/07/15 00:09:14;;;;;;;3.00;0.98;;;14.00;99.90;;;;;;4938919;29;20704;-68
2021/07/15 00:11:44;;;;;;;2.42;1.25;;;13.90;99.90;;;;;;4941502;28;20197;-67
2021/07/15 00:14:10;;;;;;;15.57;1.58;;;13.80;99.90;;;;;;4941509;29;20186;-67
2021/07/15 00:16:36;;;;;;;4.25;1.40;;;14.00;99.90;;;;;;4942708;28;20184;-65
2021/07/15 00:19:04;;;;;;;3.30;0.52;;;13.90;99.90;;;;;;4940753;29;20186;-67
2021/07/15 00:21:30;;;;;;;2.70;1.35;;;13.90;99.90;;;;;;4938125;28;20206;-68
2021/07/15 00:23:56;;;;;;;0.70;0.70;;;13.80;99.90;;;;;;4938555;29;20653;-68
2021/07/15 00:26:24;;;;;;;2.28;1.20;;;13.90;99.90;;;;;;4940445;29;20200;-66
2021/07/15 00:28:50;;;;;;;0.70;0.68;;;14.00;99.90;;;;;;4942851;28;20196;-68
2021/07/15 00:31:15;;;;;;;1.70;0.95;;;14.20;99.90;;;;;;4941477;29;20193;-65
2021/07/15 00:33:42;;;;;;;5.22;1.10;;;14.30;99.90;;;;;;4940928;29;20185;-69
2021/07/15 00:36:08;;;;;;;2.45;0.70;;;14.40;99.90;;;;;;4940044;29;20283;-66
2021/07/15 00:38:34;;;;;;;1.10;1.00;;;14.40;99.90;;;;;;4939804;28;20196;-67
2021/07/15 00:41:00;;;;;;;0.80;0.70;;;14.50;99.90;;;;;;4936442;28;20209;-66
2021/07/15 00:43:25;;;;;;;0.60;0.60;;;14.60;99.90;;;;;;4936034;29;20190;-68
2021/07/15 00:45:52;;;;;;;9.73;1.10;;;14.60;99.90;;;;;;4936217;29;20202;-68
2021/07/15 00:48:18;;;;;;;2.75;0.82;;;14.70;99.90;;;;;;4938804;28;20182;-69
2021/07/15 00:50:44;;;;;;;1.75;0.80;;;14.60;99.90;;;;;;4940504;29;20805;-68
2021/07/15 00:53:10;;;;;;;3.88;0.90;;;14.60;99.90;;;;;;4940865;29;20641;-65
2021/07/15 00:55:39;;;;;;;2.35;0.95;;;14.70;99.90;;;;;;4940950;29;20192;-66
2021/07/15 00:58:07;;;;;;;4.97;1.38;;;14.60;99.90;;;;;;4942001;29;20205;-66
2021/07/15 01:00:34;;;;;;;1.48;1.02;;;14.70;99.90;;;;;;4942150;29;20235;-68
2021/07/15 01:03:00;;;;;;;2.42;1.35;;;14.70;99.90;;;;;;4938556;29;20178;-67
2021/07/15 01:05:30;;;;;;;1.05;0.73;;;14.60;99.90;;;;;;4940907;28;20684;-67
2021/07/15 01:07:55;;;;;;;1.20;0.90;;;14.70;99.90;;;;;;4937010;29;20726;-68
2021/07/15 01:10:26;;;;;;;3.22;0.98;;;14.60;99.90;;;;;;4940722;29;20217;-67
2021/07/15 01:12:58;;;;;;;2.50;0.80;;;14.60;99.90;;;;;;4941192;29;20192;-67
2021/07/15 01:15:31;;;;;;;6.00;1.05;;;14.60;99.90;;;;;;4935991;28;20198;-68
2021/07/15 01:18:08;;;;;;;3.28;0.93;;;14.60;99.90;;;;;;4934953;29;20658;-67
2021/07/15 01:20:40;;;;;;;0.80;0.80;;;14.60;99.90;;;;;;4937161;29;20668;-64
2021/07/15 01:23:40;;;;;;;4.25;1.63;;;14.60;99.90;;;;;;4937978;28;20193;-65
2021/07/15 01:26:21;;;;;;;3.60;1.42;;;14.40;99.90;;;;;;4940781;29;20194;-69
2021/07/15 01:29:05;;;;;;;1.10;0.98;;;14.10;99.90;;;;;;4939384;29;20186;-68
2021/07/15 01:31:35;;;;;;;5.93;1.10;;;14.10;99.90;;;;;;4938542;29;20550;-66
2021/07/15 01:34:02;;;;;;;10.38;1.55;;;14.00;99.90;;;;;;4946303;29;20185;-65
2021/07/15 01:36:34;;;;;;;5.63;1.55;;;13.80;99.90;;;;;;4938223;29;20209;-68
2021/07/15 01:39:08;;;;;;;3.85;1.40;;;13.70;99.90;;;;;;4944260;28;20181;-69
2021/07/15 01:41:38;;;;;;;15.55;1.10;;;13.70;99.90;;;;;;4939409;29;20210;-68
2021/07/15 01:44:11;;;;;;;8.07;1.00;;;13.60;99.90;;;;;;4938345;29;20721;-68
2021/07/15 01:46:38;;;;;;;9.48;2.53;;;13.60;99.90;;;;;;4937498;29;20197;-66
2021/07/15 01:49:06;;;;;;;7.28;1.25;;;13.60;99.90;;;;;;4936074;28;20193;-65
2021/07/15 01:51:33;;;;;;;1.52;0.90;;;13.50;99.90;;;;;;4943398;28;20185;-65
2021/07/15 01:53:59;;;;;;;1.25;1.00;;;13.70;99.90;;;;;;4941500;29;20208;-68
2021/07/15 01:56:26;;;;;;;3.22;1.33;;;13.80;99.90;;;;;;4940381;28;20201;-65
2021/07/15 01:58:55;;;;;;;0.75;0.75;;;13.80;99.90;;;;;;4939613;28;20732;-65
2021/07/15 02:01:22;;;;;;;5.25;1.52;;;13.80;99.90;;;;;;4938893;29;20242;-67
2021/07/15 02:03:51;;;;;;;4.07;0.90;;;13.80;99.90;;;;;;4939002;28;20213;-68
2021/07/15 02:06:19;;;;;;;2.30;1.50;;;13.90;99.90;;;;;;4940144;29;20201;-66
2021/07/15 02:08:46;;;;;;;3.88;1.45;;;14.00;99.90;;;;;;4940255;29;20182;-68
2021/07/15 02:11:13;;;;;;;1.40;1.20;;;14.00;99.90;;;;;;4937814;28;20186;-68
2021/07/15 02:13:40;;;;;;;2.78;1.20;;;13.90;99.90;;;;;;4936662;28;20186;-65
2021/07/15 02:16:07;;;;;;;7.00;1.70;;;13.90;99.90;;;;;;4938833;29;20198;-66
2021/07/15 02:18:34;;;;;;;3.97;1.00;;;13.80;99.90;;;;;;4939396;28;20188;-66
2021/07/15 02:21:01;;;;;;;5.72;1.00;;;13.80;99.90;;;;;;4939925;29;20260;-65
2021/07/15 02:23:28;;;;;;;0.90;0.90;;;13.70;99.90;;;;;;4940960;29;20189;-64
2021/07/15 02:25:55;;;;;;;10.55;2.00;;;13.70;99.90;;;;;;4937324;29;20177;-69
2021/07/15 02:28:25;;;;;;;2.83;1.13;;;13.70;99.90;;;;;;4940528;28;20192;-66
2021/07/15 02:30:56;;;;;;;4.05;1.42;;;13.60;99.90;;;;;;4938065;28;20358;-67
2021/07/15 02:33:28;;;;;;;7.63;1.13;;;13.60;99.90;;;;;;4935998;29;20180;-64
2021/07/15 02:35:57;;;;;;;1.45;1.30;;;13.70;99.90;;;;;;4935938;29;20190;-65
2021/07/15 02:38:25;;;;;;;8.77;1.65;;;13.80;99.90;;;;;;4934624;29;20269;-68
2021/07/15 02:40:52;;;;;;;3.42;1.48;;;13.80;99.90;;;;;;4936616;28;20246;-68
2021/07/15 02:43:18;;;;;;;3.20;1.27;;;13.80;99.90;;;;;;4937747;29;20634;-69
2021/07/15 02:45:43;;;;;;;2.63;1.40;;;13.80;99.90;;;;;;4938947;29;20236;-66
2021/07/15 02:48:12;;;;;;;9.13;1.15;;;13.90;99.90;;;;;;4937171;28;20672;-65
2021/07/15 02:50:38;;;;;;;7.15;1.05;;;13.90;99.90;;;;;;4942034;28;20205;-67
2021/07/15 02:53:04;;;;;;;1.77;1.35;;;13.90;99.90;;;;;;4939402;28;20194;-65
2021/07/15 02:55:30;;;;;;;5.63;1.85;;;13.90;99.90;;;;;;4937341;29;20669;-67
2021/07/15 02:57:56;;;;;;;4.22;0.98;;;13.90;99.90;;;;;;4940043;28;20194;-67
2021/07/15 03:00:25;;;;;;;2.05;1.05;;;13.90;99.90;;;;;;4938166;28;20268;-66
2021/07/15 03:02:59;;;;;;;2.45;0.90;;;13.90;99.90;;;;;;4936030;29;20724;-67
2021/07/15 03:05:29;;;;;;;4.65;1.17;;;13.80;99.90;;;;;;4939755;29;20237;-67
2021/07/15 03:08:02;;;;;;;1.98;1.05;;;13.80;99.90;;;;;;4933615;29;20186;-68
2021/07/15 03:10:29;;;;;;;8.25;2.60;;;13.80;99.90;;;;;;4935945;28;20206;-65
2021/07/15 03:12:55;;;;;;;1.15;1.05;;;13.90;99.90;;;;;;4939708;29;20200;-65
2021/07/15 03:15:22;;;;;;;5.50;1.15;;;13.80;99.90;;;;;;4939375;29;20225;-66
2021/07/15 03:17:49;;;;;;;3.50;1.25;;;13.70;99.90;;;;;;4939245;28;20348;-67
2021/07/15 03:20:30;;;;;;;5.65;1.52;;;13.80;99.90;;;;;;4939667;28;20609;-68
2021/07/15 03:22:59;;;;;;;6.00;2.65;;;13.80;99.90;;;;;;4940526;29;20240;-67
2021/07/15 03:25:27;;;;;;;6.20;1.30;;;14.00;99.90;;;;;;4940238;29;20654;-66
2021/07/15 03:27:56;;;;;;;4.90;1.13;;;13.90;99.90;;;;;;4941574;29;20555;-69
2021/07/15 03:30:27;;;;;;;5.60;1.27;;;13.90;99.90;;;;;;4955646;28;20213;-66
2021/07/15 03:32:53;;;;;;;4.07;1.00;;;13.90;99.90;;;;;;4936868;29;20717;-66
2021/07/15 03:35:19;;;;;;;5.45;1.30;;;13.90;99.90;;;;;;4938874;29;20518;-68
2021/07/15 03:37:47;;;;;;;3.50;1.40;;;13.80;99.90;;;;;;4939882;29;20700;-67
2021/07/15 03:40:22;;;;;;;0.90;0.80;;;13.90;99.90;;;;;;4940896;28;20307;-68
2021/07/15 03:42:48;;;;;;;7.20;1.52;;;13.80;99.90;;;;;;4943253;29;20264;-66
2021/07/15 03:45:17;;;;;;;4.25;1.50;;;13.90;99.90;;;;;;4945885;29;20245;-68
2021/07/15 03:47:54;;;;;;;2.95;1.35;;;13.90;99.90;;;;;;4945098;29;20219;-67
2021/07/15 03:50:25;;;;;;;6.65;2.45;;;13.90;99.90;;;;;;4945765;28;20546;-66
2021/07/15 03:53:03;;;;;;;8.93;1.35;;;14.00;99.90;;;;;;4944389;29;20178;-68
2021/07/15 03:55:35;;;;;;;11.38;1.30;;;14.00;99.90;;;;;;4945205;29;20203;-69
2021/07/15 03:58:08;;;;;;;8.10;1.65;;;14.00;99.90;;;;;;4943674;29;20222;-69
2021/07/15 04:00:37;;;;;;;5.13;1.77;;;13.90;99.90;;;;;;4946783;28;20209;-66
2021/07/15 04:03:17;;;;;;;2.83;1.63;;;14.10;99.90;;;;;;4943273;28;20188;-64
2021/07/15 04:05:44;;;;;;;3.75;0.88;;;14.10;99.90;;;;;;4946599;29;20186;-66
2021/07/15 04:08:10;;;;;;;4.70;1.10;;;14.20;99.90;;;;;;4942681;28;20186;-67
2021/07/15 04:10:39;;;;;;;2.13;1.23;;;14.30;99.90;;;;;;4944174;29;20736;-69
2021/07/15 04:13:13;;;;;;;1.60;1.38;;;14.30;99.90;;;;;;4943189;29;20221;-66
2021/07/15 04:15:53;;;;;;;3.70;1.00;;;14.30;99.90;;;;;;4944041;29;20188;-65
2021/07/15 04:18:34;;;;;;;5.25;1.40;;;14.40;99.90;;;;;;4943140;29;20194;-66
2021/07/15 04:21:00;;;;;;;4.55;1.27;;;14.40;99.90;;;;;;4943726;29;20641;-68
2021/07/15 04:23:29;;;;;;;4.90;1.58;;;14.40;99.90;;;;;;4943937;29;20217;-68
2021/07/15 04:25:55;;;;;;;2.38;1.20;;;14.50;99.90;;;;;;4944452;28;20196;-65
2021/07/15 04:28:24;;;;;;;1.00;0.90;;;14.60;99.90;;;;;;4941616;29;20280;-68
2021/07/15 04:31:20;;;;;;;5.05;1.10;;;14.70;99.90;;;;;;4944928;29;20222;-69
2021/07/15 04:33:46;;;;;;;5.18;0.98;;;14.90;99.90;;;;;;4948389;28;20212;-65
2021/07/15 04:36:12;;;;;;;3.22;1.35;;;15.70;99.90;;;;;;4943968;29;20199;-68
2021/07/15 04:38:44;;;;;;;4.35;1.08;;;17.00;99.90;;;;;;4943078;29;20558;-66
2021/07/15 04:41:13;;;;;;;4.55;1.20;;;18.30;99.90;;;;;;4944127;28;20378;-65
2021/07/15 04:43:45;;;;;;;12.68;1.33;;;19.60;99.90;;;;;;4946418;28;20193;-65
2021/07/15 04:46:13;;;;;;;4.65;0.70;;;20.40;99.90;;;;;;4941114;29;20225;-64
2021/07/15 04:48:40;;;;;;;5.25;0.70;;;21.40;99.90;;;;;;4941190;29;20672;-65
2021/07/15 04:51:10;;;;;;;4.22;1.13;;;22.20;99.90;;;;;;4937084;29;20209;-65
2021/07/15 04:53:36;;;;;;;3.03;0.63;;;22.90;99.90;;;;;;4933976;29;20646;-68
2021/07/15 04:56:02;;;;;;;4.20;0.88;;;23.30;99.90;;;;;;4934925;29;20238;-67
2021/07/15 04:58:28;;;;;;;3.85;1.10;;;23.70;99.90;;;;;;4938159;29;20190;-65
2021/07/15 05:00:54;;;;;;;6.03;1.48;;;24.00;99.90;;;;;;4936415;29;20209;-64
2021/07/15 05:03:30;;;;;;;8.55;1.48;;;24.20;99.90;;;;;;4931768;29;20208;-63
2021/07/15 05:05:56;;;;;;;1.55;1.00;;;24.40;99.90;;;;;;4940287;29;20212;-66
2021/07/15 05:08:22;;;;;;;1.05;1.00;;;24.50;99.90;;;;;;4936790;29;20702;-67
2021/07/15 05:10:48;;;;;;;1.30;0.88;;;24.60;99.90;;;;;;4936098;28;20198;-67
2021/07/15 05:13:14;;;;;;;3.33;1.17;;;24.70;99.90;;;;;;4933204;29;20257;-67
2021/07/15 05:15:40;;;;;;;1.38;1.20;;;25.00;99.90;;;;;;4933752;28;20233;-66
2021/07/15 05:18:05;;;;;;;1.45;0.90;;;25.30;99.90;;;;;;4938633;29;20200;-68
2021/07/15 05:20:31;;;;;;;1.40;1.00;;;25.40;99.90;;;;;;4931128;29;20217;-67
2021/07/15 05:22:57;;;;;;;0.98;0.90;;;25.50;99.90;;;;;;4937590;28;20197;-67
2021/07/15 05:25:23;;;;;;;2.15;1.20;;;25.50;99.90;;;;;;4937398;29;20186;-68
2021/07/15 05:27:48;;;;;;;0.90;0.90;;;25.50;99.90;;;;;;4938000;29;20178;-66
2021/07/15 05:30:15;;;;;;;1.00;0.90;;;25.60;99.90;;;;;;4936549;29;20218;-64
2021/07/15 05:32:40;;;;;;;1.05;0.80;;;25.70;99.90;;;;;;4934284;29;20186;-67
2021/07/15 05:35:06;;;;;;;1.98;1.08;;;25.90;99.90;;;;;;4941705;29;20614;-66
2021/07/15 05:37:34;;;;;;;1.48;0.73;;;26.30;99.90;;;;;;4935649;29;20274;-65
2021/07/15 05:39:59;;;;;;;2.97;0.90;;;26.30;99.90;;;;;;4937641;28;20213;-69
2021/07/15 05:42:25;;;;;;;0.60;0.60;;;26.30;99.90;;;;;;4943295;29;20196;-68
2021/07/15 05:44:51;;;;;;;2.58;0.90;;;26.40;99.90;;;;;;4938319;28;20203;-68
2021/07/15 05:47:16;;;;;;;1.77;0.80;;;26.60;99.90;;;;;;4935109;28;20185;-66
2021/07/15 05:49:42;;;;;;;1.70;1.25;;;26.50;99.90;;;;;;4936433;29;20292;-66
2021/07/15 05:52:08;;;;;;;2.08;0.93;;;26.70;99.90;;;;;;4930111;29;20645;-69
2021/07/15 05:54:34;;;;;;;0.60;0.60;;;26.90;99.90;;;;;;4935100;29;20193;-67
2021/07/15 05:57:00;;;;;;;2.28;0.93;;;26.80;99.90;;;;;;4933425;29;20651;-67
2021/07/15 05:59:26;;;;;;;1.15;0.95;;;25.80;99.90;;;;;;4934294;29;20308;-65
2021/07/15 06:01:52;;;;;;;2.22;0.93;;;25.10;99.90;;;;;;4934368;29;20209;-66
2021/07/15 06:04:17;;;;;;;1.65;1.17;;;25.00;99.90;;;;;;4938699;28;20197;-66
2021/07/15 06:06:43;;;;;;;1.63;0.75;;;24.90;99.90;;;;;;4932990;28;20193;-64
2021/07/15 06:09:08;;;;;;;0.90;0.90;;;24.80;99.90;;;;;;4932365;29;20224;-66
2021/07/15 06:11:34;;;;;;;0.80;0.80;;;24.80;99.90;;;;;;4935349;29;20197;-66
2021/07/15 06:14:00;;;;;;;1.10;1.00;;;24.50;99.90;;;;;;4941597;29;20190;-64
2021/07/15 06:16:26;;;;;;;1.13;0.90;;;24.20;99.90;;;;;;4930024;29;20181;-65
2021/07/15 06:18:51;;;;;;;0.90;0.90;;;24.30;99.90;;;;;;4932129;28;20265;-66
2021/07/15 06:21:17;;;;;;;1.30;1.20;;;24.80;99.90;;;;;;4934470;28;20885;-67
2021/07/15 06:23:44;;;;;;;3.05;1.05;;;25.60;99.90;;;;;;4937503;28;20209;-66
2021/07/15 06:26:10;;;;;;;3.10;0.80;;;25.80;99.90;;;;;;4931644;29;20200;-66
2021/07/15 06:28:36;;;;;;;3.70;0.77;;;25.30;99.90;;;;;;4931747;29;20620;-64
2021/07/15 06:31:03;;;;;;;0.60;0.60;;;25.40;99.90;;;;;;4940342;28;20225;-64
2021/07/15 06:33:28;;;;;;;2.95;1.10;;;25.80;99.90;;;;;;4934028;28;20190;-68
2021/07/15 06:35:54;;;;;;;1.20;1.10;;;26.20;99.90;;;;;;4939881;29;20194;-66
2021/07/15 06:38:23;;;;;;;1.55;0.70;;;26.00;99.90;;;;;;4935193;28;20190;-64
2021/07/15 06:40:57;;;;;;;1.77;1.10;;;25.90;99.90;;;;;;4939784;28;20240;-68
2021/07/15 06:43:23;;;;;;;2.75;1.00;;;25.30;99.90;;;;;;4949417;28;20641;-69
2021/07/15 06:45:48;;;;;;;1.38;0.98;;;25.10;99.90;;;;;;4931097;28;20198;-68
2021/07/15 06:48:14;;;;;;;0.80;0.80;;;24.60;99.90;;;;;;4928986;28;20246;-65
2021/07/15 06:50:41;;;;;;;1.88;1.05;;;24.10;99.90;;;;;;4934473;29;20896;-63
2021/07/15 06:53:07;;;;;;;0.70;0.70;;;23.80;99.90;;;;;;4927951;29;20218;-67
2021/07/15 06:55:33;;;;;;;0.85;0.68;;;23.80;99.90;;;;;;4933926;29;20189;-64
2021/07/15 06:57:58;;;;;;;0.57;0.57;;;23.90;99.90;;;;;;4938513;29;20193;-67
2021/07/15 07:00:24;;;;;;;0.60;0.60;;;24.20;99.90;;;;;;4932241;28;20222;-63
2021/07/15 07:02:49;;;;;;;0.60;0.60;;;24.10;99.90;;;;;;4931369;29;20210;-64
2021/07/15 07:05:16;;;;;;;0.60;0.60;;;23.80;99.90;;;;;;4930162;29;20281;-68
2021/07/15 07:07:42;;;;;;;0.80;0.80;;;23.50;99.90;;;;;;4935739;29;20185;-65
2021/07/15 07:10:15;;;;;;;0.75;0.70;;;23.60;99.90;;;;;;4934182;28;20210;-69
2021/07/15 07:12:41;;;;;;;0.70;0.70;;;23.50;99.90;;;;;;4941300;29;20182;-66
2021/07/15 07:15:09;;;;;;;0.70;0.70;;;23.50;99.90;;;;;;4937842;29;20194;-69
2021/07/15 07:17:35;;;;;;;0.82;0.80;;;23.60;99.90;;;;;;4936869;29;20892;-68
2021/07/15 07:20:02;;;;;;;1.50;0.73;;;23.90;99.90;;;;;;4938767;28;20220;-64
2021/07/15 07:22:28;;;;;;;0.60;0.60;;;23.90;99.90;;;;;;4932747;28;20182;-66
2021/07/15 07:24:53;;;;;;;0.70;0.70;;;24.00;99.90;;;;;;4933522;29;20193;-67
2021/07/15 07:27:19;;;;;;;0.65;0.65;;;23.90;99.90;;;;;;4936832;28;20193;-66
2021/07/15 07:29:45;;;;;;;0.50;0.50;;;23.70;99.90;;;;;;4931037;29;20220;-65
2021/07/15 07:32:10;;;;;;;0.70;0.70;;;23.80;99.90;;;;;;4927743;29;20182;-69
2021/07/15 07:34:36;;;;;;;0.70;0.70;;;23.80;99.90;;;;;;4928613;29;20185;-66
2021/07/15 07:37:02;;;;;;;1.00;0.70;;;23.80;99.90;;;;;;4934802;29;20213;-67
2021/07/15 07:39:27;;;;;;;0.90;0.60;;;23.70;99.90;;;;;;4937476;28;20596;-68
2021/07/15 07:41:53;;;;;;;0.52;0.52;;;23.60;99.90;;;;;;4927883;29;20199;-67
2021/07/15 07:44:19;;;;;;;0.70;0.70;;;23.60;99.90;;;;;;4926061;29;20179;-66
2021/07/15 07:46:45;;;;;;;0.80;0.80;;;24.00;99.90;;;;;;4931258;29;20198;-67
2021/07/15 07:49:10;;;;;;;1.90;1.20;;;24.30;99.90;;;;;;4931517;28;20213;-68
2021/07/15 07:51:36;;;;;;;0.68;0.60;;;24.40;99.90;;;;;;4930349;29;20198;-65
2021/07/15 07:54:02;;;;;;;1.02;0.55;;;24.30;99.90;;;;;;4927297;28;20197;-67
2021/07/15 07:56:28;;;;;;;2.65;0.90;;;24.30;99.90;;;;;;4930423;29;20185;-68
2021/07/15 07:58:54;;;;;;;0.70;0.70;;;24.50;99.90;;;;;;4927761;29;20307;-68
2021/07/15 08:01:20;;;;;;;0.70;0.70;;;24.70;99.90;;;;;;4930494;29;20817;-66
2021/07/15 08:03:46;;;;;;;0.73;0.73;;;24.70;99.90;;;;;;4929492;29;20200;-66
2021/07/15 08:06:13;;;;;;;0.75;0.75;;;24.70;99.90;;;;;;4932492;29;20196;-66
2021/07/15 08:08:40;;;;;;;1.20;0.90;;;24.90;99.90;;;;;;4930413;29;20225;-67
2021/07/15 08:11:06;;;;;;;0.70;0.70;;;25.00;99.90;;;;;;4927216;28;20210;-70
2021/07/15 08:13:32;;;;;;;0.73;0.70;;;25.00;99.90;;;;;;4928564;28;20194;-67
2021/07/15 08:15:58;;;;;;;0.45;0.45;;;25.10;99.90;;;;;;4930106;29;20245;-68
2021/07/15 08:18:23;;;;;;;0.70;0.70;;;25.30;99.90;;;;;;4930202;29;20198;-65
2021/07/15 08:20:50;;;;;;;0.80;0.75;;;24.90;99.90;;;;;;4932992;28;20700;-68
2021/07/15 08:23:16;;;;;;;0.77;0.77;;;25.20;99.90;;;;;;4935643;28;20190;-67
2021/07/15 08:25:42;;;;;;;0.57;0.57;;;25.00;99.90;;;;;;4930344;28;20651;-69
2021/07/15 08:28:08;;;;;;;0.70;0.70;;;25.30;99.90;;;;;;4931355;29;20182;-69
2021/07/15 08:30:34;;;;;;;0.80;0.80;;;25.60;99.90;;;;;;4930022;29;20626;-66
2021/07/15 08:32:59;;;;;;;0.60;0.60;;;25.70;99.90;;;;;;4936072;29;20185;-69
2021/07/15 08:35:29;;;;;;;0.70;0.70;;;26.00;99.90;;;;;;4930349;29;20699;-66
2021/07/15 08:37:58;;;;;;;1.77;0.90;;;26.10;99.90;;;;;;4930672;29;20225;-67
2021/07/15 08:40:25;;;;;;;0.60;0.50;;;25.60;99.90;;;;;;4932101;29;20218;-65
2021/07/15 08:42:52;;;;;;;0.50;0.50;;;25.30;99.90;;;;;;4935053;29;20553;-67
2021/07/15 08:45:17;;;;;;;1.00;0.70;;;25.10;99.90;;;;;;4926939;29;20233;-66
2021/07/15 08:47:43;;;;;;;0.57;0.57;;;24.50;99.90;;;;;;4933963;29;20895;-67
2021/07/15 08:50:12;;;;;;;0.70;0.70;;;24.30;99.90;;;;;;4935174;28;20214;-68
2021/07/15 08:52:38;;;;;;;0.65;0.60;;;24.10;99.90;;;;;;4934120;29;20210;-66
2021/07/15 08:57:33;;;;;;;0.57;0.57;;;24.60;99.90;;;;;;4937951;29;20241;-67
2021/07/15 08:59:59;;;;;;;0.47;0.47;;;24.90;99.90;;;;;;4932999;29;20614;-67
2021/07/15 09:02:25;;;;;;;0.85;0.85;;;25.20;99.90;;;;;;4933242;29;20183;-68
2021/07/15 09:04:51;;;;;;;0.63;0.63;;;25.00;99.90;;;;;;4936722;29;20193;-70
2021/07/15 09:07:18;;;;;;;0.43;0.43;;;25.00;99.90;;;;;;4932955;29;20177;-70
2021/07/15 09:09:45;;;;;;;0.57;0.57;;;25.10;99.90;;;;;;4935169;28;20293;-71
2021/07/15 09:12:12;;;;;;;0.63;0.63;;;24.90;99.90;;;;;;4930904;28;20186;-67
2021/07/15 09:14:46;;;;;;;0.88;0.63;;;24.80;99.90;;;;;;4938593;29;20188;-67
2021/07/15 09:17:12;;;;;;;0.60;0.60;;;24.80;99.90;;;;;;4927844;29;20189;-67
2021/07/15 09:19:40;;;;;;;0.55;0.55;;;24.70;99.90;;;;;;4927078;28;20268;-68
2021/07/15 09:22:14;;;;;;;0.50;0.50;;;24.70;99.90;;;;;;4926540;29;20789;-66
2021/07/15 09:24:45;;;;;;;0.60;0.60;;;24.60;99.90;;;;;;4925588;29;20190;-64
2021/07/15 09:27:17;;;;;;;0.80;0.80;;;24.90;99.90;;;;;;4933403;29;20309;-66
2021/07/15 09:29:44;;;;;;;1.20;0.63;;;25.10;99.90;;;;;;4934081;28;20281;-65
2021/07/15 09:32:15;;;;;;;0.65;0.65;;;25.30;99.90;;;;;;4935118;29;20193;-69
2021/07/15 09:34:42;;;;;;;0.50;0.50;;;25.60;99.90;;;;;;4928310;29;20197;-65
2021/07/15 09:37:13;;;;;;;0.45;0.45;;;25.90;99.90;;;;;;4931698;29;20198;-67
2021/07/15 09:39:45;;;;;;;0.47;0.47;;;25.90;99.90;;;;;;4928053;29;20301;-68
2021/07/15 09:42:19;;;;;;;0.60;0.52;;;25.70;99.90;;;;;;4932410;28;20181;-68
2021/07/15 09:44:48;;;;;;;2.00;0.80;;;25.60;99.90;;;;;;4926834;29;20230;-63
2021/07/15 09:47:40;;;;;;;0.60;0.60;;;25.40;99.90;;;;;;4929214;29;20250;-64
2021/07/15 09:50:17;;;;;;;0.82;0.75;;;25.40;99.90;;;;;;4936510;28;20591;-65
2021/07/15 09:52:46;;;;;;;0.43;0.43;;;25.70;99.90;;;;;;4933865;29;20186;-64
2021/07/15 09:55:26;;;;;;;0.50;0.50;;;25.80;99.90;;;;;;4931455;28;20233;-64
2021/07/15 09:58:03;;;;;;;1.30;0.80;;;26.10;99.90;;;;;;4927724;29;20264;-66
2021/07/15 10:00:43;;;;;;;0.70;0.70;;;26.30;99.90;;;;;;4928294;28;20236;-64
2021/07/15 10:03:14;;;;;;;1.30;1.17;;;26.50;99.90;;;;;;4936501;29;20189;-67
2021/07/15 10:05:51;;;;;;;1.30;1.00;;;26.50;99.90;;;;;;4926038;29;20183;-67
2021/07/15 10:08:26;;;;;;;2.05;0.80;;;26.00;99.90;;;;;;4929312;29;20222;-67
2021/07/15 10:10:53;;;;;;;1.52;0.95;;;25.50;99.90;;;;;;4929578;29;20204;-67
2021/07/15 10:13:23;;;;;;;1.00;1.00;;;24.90;99.90;;;;;;4932693;28;20217;-66
2021/07/15 10:15:51;;;;;;;2.15;0.95;;;24.70;99.90;;;;;;4926045;29;20190;-67
2021/07/15 10:18:35;;;;;;;1.00;0.90;;;24.50;99.90;;;;;;4934537;29;20271;-65
2021/07/15 10:21:01;;;;;;;0.73;0.70;;;24.80;99.90;;;;;;4937049;29;20304;-67
2021/07/15 10:23:37;;;;;;;0.98;0.80;;;25.40;99.90;;;;;;4928434;29;20232;-68
2021/07/15 10:26:05;;;;;;;1.88;0.80;;;26.00;99.90;;;;;;4930652;28;20201;-67
2021/07/15 10:28:31;;;;;;;0.70;0.70;;;25.70;99.90;;;;;;4934128;29;20264;-67
2021/07/15 10:31:03;;;;;;;1.08;1.00;;;25.60;99.90;;;;;;4938964;29;20299;-65
2021/07/15 10:33:29;;;;;;;0.85;0.85;;;25.50;99.90;;;;;;4936409;29;20570;-69
2021/07/15 10:36:00;;;;;;;1.00;0.90;;;25.70;99.90;;;;;;4930285;29;20178;-69
2021/07/15 10:38:30;;;;;;;1.38;1.10;;;26.20;99.90;;;;;;4925799;29;20190;-67
2021/07/15 10:40:57;;;;;;;1.05;0.90;;;26.50;99.90;;;;;;4933617;28;20205;-66
2021/07/15 10:43:24;;;;;;;0.65;0.65;;;26.80;99.90;;;;;;4938119;29;20186;-66
2021/07/15 10:45:51;;;;;;;1.67;0.90;;;27.00;99.90;;;;;;4936955;29;20203;-68
2021/07/15 10:48:18;;;;;;;0.93;0.80;;;27.20;99.90;;;;;;4934087;29;20186;-67
2021/07/15 10:50:44;;;;;;;0.90;0.75;;;27.30;99.90;;;;;;4925870;29;20278;-68
2021/07/15 10:53:12;;;;;;;0.75;0.70;;;27.40;99.90;;;;;;4925703;29;20285;-69
2021/07/15 10:55:38;;;;;;;0.75;0.75;;;27.40;99.90;;;;;;4930683;29;20257;-66
2021/07/15 10:58:04;;;;;;;4.35;0.98;;;26.90;99.90;;;;;;4932647;29;20284;-68
2021/07/15 11:00:30;;;;;;;0.68;0.68;;;26.60;99.90;;;;;;4925703;29;20292;-66
2021/07/15 11:03:20;;;;;;;2.10;0.90;;;26.60;99.90;;;;;;4928973;29;20189;-68
2021/07/15 11:05:54;;;;;;;1.13;0.75;;;26.20;99.90;;;;;;4929576;29;20256;-68
2021/07/15 11:08:48;;;;;;;2.05;0.73;;;26.20;99.90;;;;;;4932575;29;20201;-66
2021/07/15 11:11:15;;;;;;;0.80;0.80;;;26.20;99.90;;;;;;4931708;28;20233;-65
2021/07/15 11:13:42;;;;;;;2.15;0.70;;;26.30;99.90;;;;;;4927067;29;20221;-67
2021/07/15 11:16:08;;;;;;;1.10;0.70;;;26.40;99.90;;;;;;4926122;29;20186;-66
2021/07/15 11:18:56;;;;;;;0.98;0.90;;;26.20;99.90;;;;;;4923750;29;20662;-69
2021/07/15 11:21:30;;;;;;;1.10;0.80;;;25.90;99.90;;;;;;4928556;29;20705;-67
2021/07/15 11:24:04;;;;;;;0.80;0.80;;;25.60;99.90;;;;;;4923747;29;20205;-65
2021/07/15 11:26:37;;;;;;;0.50;0.50;;;25.70;99.90;;;;;;4941846;28;20216;-70
2021/07/15 11:29:03;;;;;;;0.70;0.70;;;25.70;99.90;;;;;;4924452;29;20182;-68
2021/07/15 11:31:48;;;;;;;0.80;0.75;;;25.90;99.90;;;;;;4938123;29;20187;-69
2021/07/15 11:34:36;;;;;;;0.73;0.73;;;26.20;99.90;;;;;;4934007;28;20204;-68
2021/07/15 11:37:34;;;;;;;0.77;0.77;;;26.60;99.90;;;;;;4929721;28;20190;-67
2021/07/15 11:40:00;;;;;;;0.80;0.77;;;26.50;99.90;;;;;;4939447;28;20575;-69
2021/07/15 11:42:28;;;;;;;0.77;0.70;;;26.50;99.90;;;;;;4931481;29;20182;-67
2021/07/15 11:45:03;;;;;;;1.45;0.88;;;26.70;99.90;;;;;;4937936;29;20193;-68
2021/07/15 11:47:54;;;;;;;0.50;0.50;;;26.60;99.90;;;;;;4941834;29;20219;-67
2021/07/15 11:50:30;;;;;;;2.15;0.80;;;26.80;99.90;;;;;;4931014;28;20321;-69
2021/07/15 11:53:17;;;;;;;0.88;0.70;;;27.00;99.90;;;;;;4929804;29;20190;-67
2021/07/15 11:55:44;;;;;;;1.02;0.77;;;27.00;99.90;;;;;;4928565;29;20213;-69
2021/07/15 11:58:39;;;;;;;1.65;0.70;;;27.00;99.90;;;;;;4926561;29;20195;-69
2021/07/15 12:01:22;;;;;;;1.02;0.70;;;27.10;99.90;;;;;;4924192;28;20262;-70
2021/07/15 12:04:04;;;;;;;1.17;0.70;;;27.50;99.90;;;;;;4931113;28;20186;-69
2021/07/15 12:06:32;;;;;;;1.75;0.65;;;27.30;99.90;;;;;;4930529;29;20183;-69
2021/07/15 12:09:02;;;;;;;0.60;0.60;;;27.20;99.90;;;;;;4930616;28;20673;-69
2021/07/15 12:11:28;;;;;;;0.47;0.47;;;27.70;99.90;;;;;;4930691;29;20183;-68
2021/07/15 12:13:54;;;;;;;0.65;0.65;;;27.90;99.90;;;;;;4931202;28;20197;-66
2021/07/15 12:16:21;;;;;;;0.82;0.60;;;28.30;99.90;;;;;;4929477;29;20237;-69
2021/07/15 12:18:48;;;;;;;0.70;0.60;;;28.60;99.90;;;;;;4940336;28;20181;-69
2021/07/15 12:21:25;;;;;;;0.80;0.70;;;28.70;99.90;;;;;;4933647;29;20359;-68
2021/07/15 12:23:50;;;;;;;0.65;0.65;;;28.80;99.90;;;;;;4936700;28;20260;-67
2021/07/15 12:26:18;;;;;;;0.70;0.70;;;28.50;98.80;;;;;;4931245;29;20277;-69
2021/07/15 12:28:46;;;;;;;0.65;0.60;;;28.50;98.90;;;;;;4929285;29;20265;-69
2021/07/15 12:31:16;;;;;;;0.68;0.68;;;28.80;97.60;;;;;;4934024;28;20186;-69
2021/07/15 12:33:44;;;;;;;1.33;0.80;;;28.70;98.10;;;;;;4937297;29;20280;-68
2021/07/15 12:36:14;;;;;;;0.90;0.60;;;28.70;98.60;;;;;;4929714;29;20195;-68
2021/07/15 12:38:41;;;;;;;0.73;0.73;;;28.60;97.00;;;;;;4929692;29;20685;-68
2021/07/15 12:41:12;;;;;;;0.70;0.70;;;28.80;97.00;;;;;;4932120;28;20220;-68
2021/07/15 12:43:45;;;;;;;0.88;0.68;;;28.60;98.00;;;;;;4929244;29;20550;-69
2021/07/15 12:46:20;;;;;;;0.77;0.70;;;28.60;97.60;;;;;;4929556;29;20688;-66
2021/07/15 12:49:08;;;;;;;0.50;0.50;;;28.20;96.00;;;;;;4936951;29;20213;-68
2021/07/15 12:51:40;;;;;;;0.55;0.55;;;28.30;96.40;;;;;;4932972;29;20198;-67
2021/07/15 12:54:08;;;;;;;0.70;0.70;;;28.50;99.20;;;;;;4929085;29;20198;-69
2021/07/15 12:56:36;;;;;;;0.52;0.52;;;28.70;98.80;;;;;;4933227;28;21375;-69
2021/07/15 12:59:10;;;;;;;0.70;0.70;;;28.90;98.80;;;;;;4929197;29;20756;-69